createdAt,value
2023-04-11T00:01:21.910Z,70.39
2023-04-11T00:02:45.466Z,70.18
2023-04-11T00:04:35.482Z,70.31
2023-04-11T00:05:58.101Z,70.33
2023-04-11T00:07:20.349Z,70.23
2023-04-11T00:08:44.874Z,70.27
2023-04-11T00:10:14.049Z,70.42
2023-04-11T00:11:38.283Z,70.47
2023-04-11T00:13:08.371Z,70.53
2023-04-11T00:14:32.525Z,70.51
2023-04-11T00:15:56.022Z,70.56
2023-04-11T00:17:21.697Z,70.45
2023-04-11T00:18:48.704Z,70.26
2023-04-11T00:20:11.130Z,70.57
2023-04-11T00:21:40.309Z,70.63
2023-04-11T00:23:03.124Z,70.54
2023-04-11T00:24:46.276Z,70.66
2023-04-11T00:26:11.355Z,70.58
2023-04-11T00:27:35.831Z,70.63
2023-04-11T00:29:00.685Z,70.68
2023-04-11T00:30:27.067Z,70.69
2023-04-11T00:31:48.684Z,70.71
2023-04-11T00:33:11.320Z,70.72
2023-04-11T00:34:36.713Z,70.46
2023-04-11T00:35:59.399Z,70.63
2023-04-11T00:37:24.583Z,70.68
2023-04-11T00:38:47.295Z,70.75
2023-04-11T00:40:12.590Z,70.86
2023-04-11T00:41:45.432Z,70.83
2023-04-11T00:43:11.344Z,70.60
2023-04-11T00:44:35.160Z,70.72
2023-04-11T00:45:58.015Z,70.64
2023-04-11T00:47:19.287Z,70.92
2023-04-11T00:48:45.805Z,70.79
2023-04-11T00:50:14.243Z,70.64
2023-04-11T00:51:37.028Z,70.60
2023-04-11T00:53:01.473Z,70.70
2023-04-11T00:54:29.411Z,70.64
2023-04-11T00:55:52.376Z,70.72
2023-04-11T00:57:14.920Z,70.75
2023-04-11T00:58:38.129Z,70.87
2023-04-11T01:00:01.254Z,70.62
2023-04-11T01:01:26.089Z,70.74
2023-04-11T01:02:47.986Z,70.71
2023-04-11T01:04:12.089Z,70.91
2023-04-11T01:05:43.780Z,70.87
2023-04-11T01:07:10.631Z,70.96
2023-04-11T01:08:36.440Z,70.94
2023-04-11T01:10:01.461Z,70.99
2023-04-11T01:11:29.937Z,70.95
2023-04-11T01:12:53.458Z,71.00
2023-04-11T01:14:17.806Z,71.16
2023-04-11T01:15:43.148Z,71.12
2023-04-11T01:17:14.987Z,71.06
2023-04-11T01:18:40.405Z,70.94
2023-04-11T01:20:02.820Z,71.08
2023-04-11T01:21:27.335Z,71.01
2023-04-11T01:22:51.353Z,70.92
2023-04-11T01:24:15.001Z,70.78
2023-04-11T01:25:44.104Z,71.04
2023-04-11T01:27:05.262Z,70.91
2023-04-11T01:28:33.384Z,70.90
2023-04-11T01:29:57.013Z,71.01
2023-04-11T01:31:22.568Z,70.96
2023-04-11T01:32:47.471Z,70.85
2023-04-11T01:34:13.480Z,70.91
2023-04-11T01:35:50.677Z,71.06
2023-04-11T01:37:14.018Z,70.97
2023-04-11T01:38:38.148Z,71.01
2023-04-11T01:40:02.593Z,71.02
2023-04-11T01:41:31.145Z,70.94
2023-04-11T01:42:55.996Z,71.23
2023-04-11T01:44:18.884Z,71.00
2023-04-11T01:45:42.206Z,71.16
2023-04-11T01:47:05.046Z,71.21
2023-04-11T01:48:27.444Z,71.06
2023-04-11T01:49:58.145Z,71.20
2023-04-11T01:51:21.186Z,71.37
2023-04-11T01:52:42.429Z,71.15
2023-04-11T01:54:06.411Z,71.52
2023-04-11T01:55:29.443Z,71.41
2023-04-11T01:56:56.133Z,71.23
2023-04-11T01:58:17.453Z,71.47
2023-04-11T01:59:40.017Z,71.18
2023-04-11T02:01:04.340Z,71.31
2023-04-11T02:02:27.218Z,71.31
2023-04-11T02:03:51.312Z,71.34
2023-04-11T02:05:16.070Z,71.24
2023-04-11T02:06:38.710Z,71.27
2023-04-11T02:07:59.731Z,71.39
2023-04-11T02:09:22.258Z,71.32
2023-04-11T02:10:45.403Z,71.45
2023-04-11T02:12:07.942Z,71.46
2023-04-11T02:13:32.528Z,71.50
2023-04-11T02:14:55.796Z,71.55
2023-04-11T02:16:18.481Z,71.39
2023-04-11T02:17:45.717Z,71.62
2023-04-11T02:19:08.337Z,71.67
2023-04-11T02:20:29.489Z,71.41
2023-04-11T02:21:54.404Z,71.47
2023-04-11T02:23:16.479Z,71.48
2023-04-11T02:24:39.436Z,71.54
2023-04-11T02:26:03.570Z,71.59
2023-04-11T02:27:26.026Z,71.72
2023-04-11T02:28:52.803Z,71.68
2023-04-11T02:30:16.149Z,71.51
2023-04-11T02:31:40.292Z,71.53
2023-04-11T02:33:06.305Z,71.46
2023-04-11T02:34:29.415Z,71.46
2023-04-11T02:35:51.710Z,71.51
2023-04-11T02:37:13.120Z,71.32
2023-04-11T02:38:37.787Z,71.41
2023-04-11T02:39:59.009Z,71.28
2023-04-11T02:41:22.744Z,71.28
2023-04-11T02:42:45.194Z,71.30
2023-04-11T02:44:06.715Z,71.28
2023-04-11T02:45:31.991Z,71.20
2023-04-11T02:46:56.499Z,71.25
2023-04-11T02:48:21.744Z,71.29
2023-04-11T02:50:19.502Z,71.32
2023-04-11T02:51:45.977Z,71.19
2023-04-11T02:53:11.512Z,71.23
2023-04-11T02:54:38.871Z,71.27
2023-04-11T02:56:01.649Z,71.36
2023-04-11T02:57:24.521Z,71.48
2023-04-11T02:58:47.504Z,71.52
2023-04-11T03:00:13.055Z,71.35
2023-04-11T03:01:43.942Z,71.49
2023-04-11T03:03:06.710Z,71.43
2023-04-11T03:04:34.816Z,71.35
2023-04-11T03:06:07.102Z,71.38
2023-04-11T03:07:34.100Z,71.31
2023-04-11T03:08:59.098Z,71.17
2023-04-11T03:10:20.858Z,71.32
2023-04-11T03:11:47.404Z,71.40
2023-04-11T03:13:13.796Z,71.17
2023-04-11T03:14:37.345Z,71.32
2023-04-11T03:15:59.958Z,71.24
2023-04-11T03:17:24.819Z,71.38
2023-04-11T03:18:47.317Z,71.34
2023-04-11T03:20:13.163Z,71.51
2023-04-11T03:21:42.215Z,71.40
2023-04-11T03:23:11.238Z,71.50
2023-04-11T03:24:34.498Z,71.52
2023-04-11T03:25:58.629Z,71.50
2023-04-11T03:27:22.220Z,71.39
2023-04-11T03:28:50.640Z,71.46
2023-04-11T03:30:16.700Z,71.43
2023-04-11T03:31:45.141Z,71.37
2023-04-11T03:33:08.626Z,71.50
2023-04-11T03:34:34.733Z,71.46
2023-04-11T03:36:01.756Z,71.59
2023-04-11T03:37:26.857Z,71.64
2023-04-11T03:38:49.465Z,71.48
2023-04-11T03:40:14.582Z,71.41
2023-04-11T03:41:41.271Z,71.60
2023-04-11T03:43:05.501Z,71.39
2023-04-11T03:44:39.303Z,71.34
2023-04-11T03:46:03.919Z,71.54
2023-04-11T03:47:43.583Z,71.33
2023-04-11T03:49:20.793Z,71.64
2023-04-11T03:50:49.292Z,71.74
2023-04-11T03:52:19.239Z,71.36
2023-04-11T03:53:44.388Z,71.31
2023-04-11T03:55:41.351Z,71.50
2023-04-11T03:57:06.547Z,71.26
2023-04-11T03:58:30.379Z,71.46
2023-04-11T03:59:54.703Z,71.36
2023-04-11T04:01:19.577Z,71.38
2023-04-11T04:02:50.877Z,71.56
2023-04-11T04:05:15.800Z,71.59
2023-04-11T04:06:40.312Z,71.33
2023-04-11T04:08:02.900Z,71.40
2023-04-11T04:09:45.324Z,71.37
2023-04-11T04:11:09.046Z,71.41
2023-04-11T04:12:33.378Z,71.38
2023-04-11T04:14:25.327Z,71.39
2023-04-11T04:15:51.601Z,71.37
2023-04-11T04:17:19.017Z,71.42
2023-04-11T04:18:42.959Z,71.44
2023-04-11T04:20:07.606Z,71.46
2023-04-11T04:21:33.052Z,71.38
2023-04-11T04:22:56.736Z,71.45
2023-04-11T04:24:27.556Z,71.42
2023-04-11T04:25:58.309Z,71.26
2023-04-11T04:27:25.568Z,71.21
2023-04-11T04:28:49.552Z,71.18
2023-04-11T04:30:19.451Z,71.12
2023-04-11T04:32:13.742Z,70.92
2023-04-11T04:33:43.094Z,70.78
2023-04-11T04:35:14.390Z,71.01
2023-04-11T04:36:46.617Z,70.69
2023-04-11T04:38:18.124Z,70.86
2023-04-11T04:39:51.195Z,70.61
2023-04-11T04:41:22.374Z,70.55
2023-04-11T04:42:58.632Z,70.71
2023-04-11T04:44:36.383Z,70.48
2023-04-11T04:46:12.286Z,70.34
2023-04-11T04:47:46.421Z,70.25
2023-04-11T04:49:09.430Z,70.35
2023-04-11T04:50:32.104Z,70.05
2023-04-11T04:51:53.376Z,69.91
2023-04-11T04:53:15.902Z,69.80
2023-04-11T04:54:46.979Z,69.46
2023-04-11T04:56:09.528Z,69.26
2023-04-11T04:57:35.304Z,69.21
2023-04-11T04:58:57.995Z,68.96
2023-04-11T05:00:22.903Z,69.19
2023-04-11T05:01:46.816Z,69.02
2023-04-11T05:03:11.737Z,68.72
2023-04-11T05:04:36.314Z,69.09
2023-04-11T05:06:02.873Z,68.89
2023-04-11T05:07:26.830Z,68.92
2023-04-11T05:08:48.870Z,68.57
2023-04-11T05:10:11.861Z,68.69
2023-04-11T05:11:40.089Z,68.34
2023-04-11T05:13:04.160Z,68.39
2023-04-11T05:14:28.396Z,68.40
2023-04-11T05:15:51.483Z,68.49
2023-04-11T05:17:14.783Z,68.31
2023-04-11T05:18:38.617Z,68.10
2023-04-11T05:20:03.253Z,67.99
2023-04-11T05:21:28.140Z,67.94
2023-04-11T05:22:53.707Z,68.04
2023-04-11T05:24:17.575Z,68.14
2023-04-11T05:25:39.785Z,68.04
2023-04-11T05:27:05.890Z,68.07
2023-04-11T05:28:27.512Z,67.94
2023-04-11T05:29:52.493Z,68.20
2023-04-11T05:31:15.282Z,67.83
2023-04-11T05:34:28.243Z,67.98
2023-04-11T05:40:00.837Z,67.96
2023-04-11T05:41:31.848Z,67.85
2023-04-11T05:42:56.608Z,67.95
2023-04-11T05:44:24.089Z,67.79
2023-04-11T05:45:48.109Z,67.76
2023-04-11T05:47:15.300Z,67.70
2023-04-11T05:48:44.085Z,67.42
2023-04-11T05:50:40.909Z,67.35
2023-04-11T05:52:05.387Z,67.46
2023-04-11T05:53:32.155Z,67.18
2023-04-11T05:54:56.989Z,67.40
2023-04-11T05:56:19.345Z,67.17
2023-04-11T05:57:41.529Z,66.97
2023-04-11T05:59:04.006Z,66.77
2023-04-11T06:02:24.465Z,66.84
2023-04-11T06:04:11.299Z,66.83
2023-04-11T06:05:46.150Z,66.85
2023-04-11T06:09:18.097Z,66.64
2023-04-11T06:10:42.340Z,66.41
2023-04-11T06:12:06.823Z,66.38
2023-04-11T06:13:32.279Z,66.16
2023-04-11T06:14:54.999Z,66.29
2023-04-11T06:16:17.481Z,66.12
2023-04-11T06:17:38.853Z,66.02
2023-04-11T06:19:09.707Z,65.93
2023-04-11T06:20:32.520Z,65.84
2023-04-11T06:21:59.460Z,65.44
2023-04-11T06:23:21.965Z,65.45
2023-04-11T06:24:45.633Z,65.38
2023-04-11T06:26:11.280Z,65.26
2023-04-11T06:27:33.686Z,65.00
2023-04-11T06:28:56.019Z,64.90
2023-04-11T06:30:18.241Z,64.77
2023-04-11T06:31:43.955Z,64.55
2023-04-11T06:33:06.309Z,64.42
2023-04-11T06:34:29.294Z,64.29
2023-04-11T06:35:57.240Z,64.20
2023-04-11T06:37:21.234Z,64.25
2023-04-11T06:38:43.597Z,63.91
2023-04-11T06:40:05.923Z,63.92
2023-04-11T06:41:30.328Z,63.88
2023-04-11T06:42:53.028Z,64.06
2023-04-11T06:47:37.140Z,63.71
2023-04-11T06:49:01.847Z,63.83
2023-04-11T06:51:34.157Z,63.63
2023-04-11T06:53:03.100Z,63.86
2023-04-11T06:54:39.632Z,63.81
2023-04-11T06:56:04.334Z,63.85
2023-04-11T06:57:43.375Z,63.82
2023-04-11T06:59:05.975Z,63.82
2023-04-11T07:00:31.292Z,64.00
2023-04-11T07:02:00.341Z,63.72
2023-04-11T07:03:31.001Z,63.64
2023-04-11T07:04:55.916Z,63.81
2023-04-11T07:06:21.212Z,63.63
2023-04-11T07:08:03.222Z,63.41
2023-04-11T07:13:03.503Z,63.31
2023-04-11T07:14:39.721Z,63.27
2023-04-11T07:16:15.243Z,63.10
2023-04-11T07:17:52.712Z,63.07
2023-04-11T07:19:16.781Z,63.04
2023-04-11T07:20:41.141Z,62.73
2023-04-11T07:23:06.179Z,62.76
2023-04-11T07:24:42.566Z,62.62
2023-04-11T07:26:09.246Z,62.68
2023-04-11T07:27:50.856Z,62.28
2023-04-11T07:29:32.247Z,62.24
2023-04-11T07:32:17.621Z,61.96
2023-04-11T07:33:45.502Z,61.59
2023-04-11T07:38:51.139Z,61.61
2023-04-11T08:02:10.538Z,59.57
2023-04-11T08:19:31.827Z,57.50
2023-04-11T08:24:28.758Z,56.87
2023-04-11T08:28:54.077Z,56.31
2023-04-11T08:33:34.829Z,55.64
2023-04-11T08:50:39.847Z,53.21
2023-04-11T08:53:08.990Z,52.34
2023-04-11T08:54:37.696Z,52.15
2023-04-11T09:03:51.460Z,50.47
2023-04-11T09:05:35.644Z,49.95
2023-04-11T09:07:18.394Z,49.64
2023-04-11T09:15:27.016Z,48.23
2023-04-11T09:17:28.044Z,46.54
2023-04-11T09:18:59.280Z,44.45
2023-04-11T09:27:24.961Z,42.57
2023-04-11T09:29:31.807Z,42.56
2023-04-11T09:40:49.782Z,43.96
2023-04-11T10:08:52.713Z,41.92
2023-04-11T10:10:37.752Z,41.36
2023-04-11T10:12:08.338Z,41.08
2023-04-11T10:13:44.044Z,40.48
2023-04-11T10:15:27.406Z,40.73
2023-04-11T10:17:46.999Z,40.72
2023-04-11T10:19:37.696Z,40.54
2023-04-11T10:24:55.212Z,41.30
2023-04-11T10:29:53.241Z,42.22
2023-04-11T10:34:19.604Z,42.67
2023-04-11T10:35:59.963Z,42.65
2023-04-11T10:37:35.642Z,42.82
2023-04-11T10:39:00.037Z,43.14
2023-04-11T10:40:24.473Z,43.06
2023-04-11T10:41:50.680Z,43.52
2023-04-11T10:43:50.286Z,43.74
2023-04-11T10:46:27.878Z,44.25
2023-04-11T10:48:08.017Z,44.88
2023-04-11T10:49:35.124Z,44.83
2023-04-11T11:00:14.821Z,45.85
2023-04-11T11:01:48.906Z,45.87
2023-04-11T11:03:23.785Z,45.69
2023-04-11T11:05:24.526Z,45.51
2023-04-11T11:07:37.264Z,45.59
2023-04-11T11:09:22.188Z,45.57
2023-04-11T11:10:46.585Z,45.50
2023-04-11T11:12:10.937Z,45.54
2023-04-11T11:13:53.970Z,45.40
2023-04-11T11:18:26.305Z,46.33
2023-04-11T11:19:50.059Z,46.77
2023-04-11T11:21:20.618Z,47.53
2023-04-11T11:23:02.558Z,48.24
2023-04-11T11:24:35.553Z,48.67
2023-04-11T11:26:08.930Z,49.27
2023-04-11T11:28:00.974Z,49.50
2023-04-11T11:29:32.863Z,49.92
2023-04-11T11:30:59.252Z,50.54
2023-04-11T11:32:28.529Z,51.06
2023-04-11T11:33:55.690Z,51.66
2023-04-11T11:35:19.308Z,52.40
2023-04-11T11:37:17.470Z,52.96
2023-04-11T11:38:58.121Z,53.49
2023-04-11T11:44:15.929Z,55.70
2023-04-11T11:46:08.728Z,56.59
2023-04-11T11:50:43.768Z,57.74
2023-04-11T11:52:07.556Z,58.27
2023-04-11T11:53:30.277Z,58.84
2023-04-11T11:55:36.131Z,59.91
2023-04-11T11:56:58.757Z,60.03
2023-04-11T11:58:28.962Z,60.69
2023-04-11T11:59:57.194Z,60.89
2023-04-11T12:01:19.804Z,61.53
2023-04-11T12:02:43.658Z,61.87
2023-04-11T12:04:41.676Z,62.51
2023-04-11T12:06:09.256Z,62.37
2023-04-11T12:07:32.784Z,62.92
2023-04-11T12:09:04.812Z,63.50
2023-04-11T12:10:41.407Z,63.97
2023-04-11T12:12:03.536Z,64.07
2023-04-11T12:13:43.457Z,64.12
2023-04-11T12:15:19.617Z,64.40
2023-04-11T12:16:47.592Z,64.45
2023-04-11T12:18:10.111Z,64.71
2023-04-11T12:19:36.367Z,65.17
2023-04-11T12:21:00.983Z,65.43
2023-04-11T12:22:38.793Z,66.56
2023-04-11T12:24:01.965Z,66.45
2023-04-11T12:28:50.068Z,66.94
2023-04-11T12:30:18.860Z,67.35
2023-04-11T12:31:51.431Z,67.85
2023-04-11T12:33:17.824Z,67.79
2023-04-11T12:34:42.706Z,68.37
2023-04-11T12:36:07.214Z,68.59
2023-04-11T12:37:33.567Z,69.27
2023-04-11T12:39:00.580Z,69.57
2023-04-11T12:40:28.743Z,70.18
2023-04-11T12:41:57.725Z,70.89
2023-04-11T12:55:17.338Z,71.63
2023-04-11T12:57:04.619Z,71.96
2023-04-11T13:02:45.225Z,72.17
2023-04-11T13:04:08.563Z,71.95
2023-04-11T13:08:30.854Z,71.72
2023-04-11T13:09:54.037Z,71.81
2023-04-11T13:24:12.827Z,71.32
2023-04-11T13:45:46.551Z,69.90
2023-04-11T13:47:09.930Z,69.80
2023-04-11T13:48:32.117Z,69.86
2023-04-11T13:50:02.236Z,70.41
2023-04-11T13:51:35.300Z,70.33
2023-04-11T13:52:58.205Z,70.28
2023-04-11T13:54:36.712Z,70.25
2023-04-11T14:02:31.854Z,70.87
2023-04-11T14:05:52.626Z,70.71
2023-04-11T14:07:16.603Z,70.47
2023-04-11T14:12:02.954Z,71.08
2023-04-11T14:13:42.077Z,71.32
2023-04-11T14:15:23.473Z,71.19
2023-04-11T14:16:47.054Z,70.79
2023-04-11T14:19:24.125Z,70.55
2023-04-11T14:20:56.725Z,70.94
2023-04-11T14:22:20.112Z,70.98
2023-04-11T14:24:54.061Z,71.05
2023-04-11T14:31:56.877Z,71.96
2023-04-11T14:34:26.029Z,72.50
2023-04-11T14:37:10.029Z,72.65
2023-04-11T14:46:35.710Z,73.73
2023-04-11T15:00:20.352Z,74.00
2023-04-11T15:01:48.449Z,74.05
2023-04-11T15:03:13.503Z,74.19
2023-04-11T15:04:43.769Z,73.95
2023-04-11T15:11:07.692Z,73.52
2023-04-11T15:17:38.467Z,72.60
2023-04-11T15:20:32.418Z,72.95
2023-04-11T15:31:14.192Z,72.41
2023-04-11T15:32:38.986Z,72.54
2023-04-11T15:34:09.122Z,72.01
2023-04-11T15:35:34.434Z,72.11
2023-04-11T15:37:00.936Z,72.05
2023-04-11T15:38:24.316Z,72.20
2023-04-11T15:40:00.263Z,72.39
2023-04-11T15:46:21.760Z,72.92
2023-04-11T15:50:40.591Z,72.56
2023-04-11T15:55:18.648Z,72.49
2023-04-11T15:57:35.355Z,71.93
2023-04-11T15:59:11.668Z,72.12
2023-04-11T16:03:13.780Z,71.55
2023-04-11T16:05:00.067Z,70.46
2023-04-11T16:06:23.200Z,70.60
2023-04-11T16:07:45.519Z,70.31
2023-04-11T16:09:12.157Z,69.64
2023-04-11T16:10:35.761Z,69.45
2023-04-11T16:12:39.106Z,69.48
2023-04-11T16:14:14.737Z,69.85
2023-04-11T16:15:38.830Z,69.48
2023-04-11T16:17:06.540Z,69.39
2023-04-11T16:19:16.533Z,69.28
2023-04-11T16:21:28.335Z,69.24
2023-04-11T16:22:56.370Z,69.48
2023-04-11T16:24:19.301Z,69.42
2023-04-11T16:25:50.878Z,68.65
2023-04-11T16:27:13.246Z,68.81
2023-04-11T16:28:37.828Z,68.52
2023-04-11T16:33:06.996Z,69.39
2023-04-11T16:36:18.150Z,68.90
2023-04-11T16:38:47.384Z,69.05
2023-04-11T16:40:32.706Z,69.22
2023-04-11T16:41:56.325Z,69.32
2023-04-11T16:43:18.641Z,69.13
2023-04-11T16:44:43.162Z,69.29
2023-04-11T16:46:07.737Z,68.90
2023-04-11T16:47:37.860Z,68.73
2023-04-11T16:49:47.704Z,68.89
2023-04-11T16:51:15.769Z,69.30
2023-04-11T16:52:37.658Z,68.94
2023-04-11T16:54:33.007Z,68.63
2023-04-11T16:56:00.583Z,68.84
2023-04-11T16:57:27.636Z,68.66
2023-04-11T16:58:52.627Z,68.92
2023-04-11T17:00:20.135Z,68.61
2023-04-11T17:01:42.707Z,68.75
2023-04-11T17:03:08.849Z,68.36
2023-04-11T17:04:39.513Z,68.52
2023-04-11T17:06:42.363Z,68.65
2023-04-11T17:08:07.415Z,69.27
2023-04-11T17:09:40.203Z,69.96
2023-04-11T17:11:09.381Z,69.93
2023-04-11T17:12:34.350Z,69.70
2023-04-11T17:13:57.831Z,69.38
2023-04-11T17:15:21.328Z,69.47
2023-04-11T17:16:47.692Z,69.56
2023-04-11T17:18:10.194Z,69.52
2023-04-11T17:19:37.153Z,69.19
2023-04-11T17:20:59.805Z,69.50
2023-04-11T17:22:42.393Z,69.47
2023-04-11T17:24:07.157Z,70.02
2023-04-11T17:25:35.450Z,69.86
2023-04-11T17:26:59.635Z,70.04
2023-04-11T17:28:26.054Z,70.05
2023-04-11T17:29:51.013Z,70.10
2023-04-11T17:31:13.696Z,70.33
2023-04-11T17:32:38.109Z,70.32
2023-04-11T17:34:00.600Z,70.33
2023-04-11T17:35:24.658Z,70.40
2023-04-11T17:36:47.946Z,70.54
2023-04-11T17:38:16.226Z,70.51
2023-04-11T17:39:39.648Z,70.61
2023-04-11T17:41:13.839Z,71.36
2023-04-11T17:42:37.192Z,71.47
2023-04-11T17:44:01.832Z,71.32
2023-04-11T17:45:24.366Z,70.84
2023-04-11T17:46:46.495Z,71.08
2023-04-11T17:48:09.328Z,71.14
2023-04-11T17:49:31.646Z,71.09
2023-04-11T17:51:16.585Z,71.32
2023-04-11T17:52:40.379Z,71.81
2023-04-11T17:54:34.535Z,71.79
2023-04-11T17:55:57.751Z,71.84
2023-04-11T17:57:20.384Z,71.87
2023-04-11T17:58:45.317Z,71.88
2023-04-11T18:00:16.448Z,71.71
2023-04-11T18:01:40.065Z,72.02
2023-04-11T18:03:04.663Z,72.04
2023-04-11T18:04:29.140Z,72.25
2023-04-11T18:05:52.446Z,72.27
2023-04-11T18:07:16.592Z,72.20
2023-04-11T18:08:50.309Z,72.01
2023-04-11T18:10:16.514Z,71.85
2023-04-11T18:14:05.597Z,71.92
2023-04-11T18:16:34.804Z,71.51
2023-04-11T18:18:00.024Z,71.65
2023-04-11T18:19:25.491Z,71.29
2023-04-11T18:20:58.226Z,71.12
2023-04-11T18:22:29.374Z,71.05
2023-04-11T18:23:52.208Z,71.14
2023-04-11T18:25:14.525Z,70.84
2023-04-11T18:26:37.028Z,70.39
2023-04-11T18:27:59.346Z,70.18
2023-04-11T18:29:27.076Z,70.37
2023-04-11T18:31:42.668Z,70.16
2023-04-11T18:32:55.106Z,70.60
2023-04-11T18:34:25.898Z,70.58
2023-04-11T18:36:22.578Z,70.50
2023-04-11T18:37:52.120Z,70.43
2023-04-11T18:39:18.868Z,70.46
2023-04-11T18:40:41.241Z,70.47
2023-04-11T18:42:09.802Z,70.50
2023-04-11T18:43:38.906Z,70.23
2023-04-11T18:45:05.367Z,70.28
2023-04-11T18:46:28.425Z,70.47
2023-04-11T18:47:51.638Z,70.38
2023-04-11T18:49:17.776Z,70.39
2023-04-11T18:51:03.173Z,70.64
2023-04-11T18:52:31.745Z,70.96
2023-04-11T18:54:16.973Z,71.03
2023-04-11T18:55:44.359Z,71.04
2023-04-11T18:57:10.601Z,70.99
2023-04-11T18:58:46.709Z,71.16
2023-04-11T19:00:19.485Z,71.27
2023-04-11T19:01:52.532Z,71.19
2023-04-11T19:03:34.996Z,71.20
2023-04-11T19:05:03.285Z,71.63
2023-04-11T19:06:29.533Z,71.48
2023-04-11T19:10:28.793Z,71.95
2023-04-11T19:15:21.609Z,72.60
2023-04-11T19:17:24.626Z,72.55
2023-04-11T19:18:52.499Z,72.88
2023-04-11T19:20:50.385Z,72.94
2023-04-11T19:22:18.540Z,72.92
2023-04-11T19:23:44.794Z,72.75
2023-04-11T19:26:14.805Z,72.79
2023-04-11T19:27:56.624Z,72.94
2023-04-11T19:29:24.170Z,73.06
2023-04-11T19:30:53.226Z,72.85
2023-04-11T19:34:38.536Z,73.23
2023-04-11T19:36:10.657Z,73.19
2023-04-11T19:38:09.185Z,73.02
2023-04-11T19:39:40.237Z,73.12
2023-04-11T19:41:14.763Z,73.15
2023-04-11T19:42:40.624Z,73.14
2023-04-11T19:44:14.568Z,72.89
2023-04-11T19:45:44.188Z,73.01
2023-04-11T19:47:09.659Z,72.99
2023-04-11T19:48:39.044Z,73.02
2023-04-11T19:50:25.823Z,72.93
2023-04-11T19:51:53.166Z,73.26
2023-04-11T19:53:21.103Z,73.13
2023-04-11T19:54:55.180Z,73.20
2023-04-11T19:56:25.172Z,73.19
2023-04-11T19:57:58.194Z,73.23
2023-04-11T19:59:31.571Z,73.07
2023-04-11T20:01:08.841Z,72.96
2023-04-11T20:02:51.948Z,73.17
2023-04-11T20:04:36.251Z,73.17
2023-04-11T20:06:05.747Z,73.32
2023-04-11T20:07:54.388Z,73.24
2023-04-11T20:13:59.592Z,73.87
2023-04-11T20:15:39.751Z,73.85
2023-04-11T20:17:21.790Z,73.93
2023-04-11T20:18:50.132Z,74.19
2023-04-11T20:20:43.597Z,74.32
